createdAt,value
2023-11-06T00:00:31.543Z,87.70
2023-11-06T00:01:31.625Z,87.35
2023-11-06T00:02:31.759Z,87.04
2023-11-06T00:03:31.830Z,87.45
2023-11-06T00:04:31.922Z,87.65
2023-11-06T00:05:32.144Z,87.85
2023-11-06T00:06:32.067Z,88.00
2023-11-06T00:07:32.118Z,87.14
2023-11-06T00:08:32.225Z,87.85
2023-11-06T00:09:32.347Z,86.77
2023-11-06T00:10:32.434Z,87.59
2023-11-06T00:11:32.489Z,86.88
2023-11-06T00:12:32.562Z,86.73
2023-11-06T00:13:32.635Z,86.83
2023-11-06T00:14:32.733Z,87.24
2023-11-06T00:15:32.837Z,86.98
2023-11-06T00:16:32.889Z,86.98
2023-11-06T00:17:33.128Z,86.12
2023-11-06T00:18:33.115Z,86.02
2023-11-06T00:19:33.130Z,85.40
2023-11-06T00:20:33.237Z,85.50
2023-11-06T00:21:33.274Z,86.12
2023-11-06T00:22:33.359Z,86.63
2023-11-06T00:23:33.430Z,86.73
2023-11-06T00:24:33.501Z,86.98
2023-11-06T00:25:33.627Z,86.05
2023-11-06T00:26:33.667Z,86.57
2023-11-06T00:27:33.768Z,85.85
2023-11-06T00:28:33.808Z,85.71
2023-11-06T00:29:33.921Z,85.64
2023-11-06T00:30:33.961Z,85.75
2023-11-06T00:31:34.033Z,86.22
2023-11-06T00:32:34.151Z,85.75
2023-11-06T00:33:34.256Z,86.36
2023-11-06T00:34:34.315Z,86.36
2023-11-06T00:35:34.346Z,85.96
2023-11-06T00:36:34.427Z,86.05
2023-11-06T00:37:34.577Z,85.85
2023-11-06T00:38:34.597Z,86.57
2023-11-06T00:39:34.686Z,84.93
2023-11-06T00:40:34.781Z,84.69
2023-11-06T00:41:34.851Z,84.28
2023-11-06T00:42:34.970Z,83.97
2023-11-06T00:43:35.038Z,84.79
2023-11-06T00:44:35.097Z,84.58
2023-11-06T00:45:35.164Z,84.28
2023-11-06T00:46:35.279Z,84.31
2023-11-06T00:47:35.378Z,84.07
2023-11-06T00:48:35.424Z,83.15
2023-11-06T00:49:35.620Z,83.05
2023-11-06T00:50:35.590Z,82.84
2023-11-06T00:51:35.661Z,81.72
2023-11-06T00:52:35.773Z,81.51
2023-11-06T00:53:35.805Z,82.43
2023-11-06T00:54:35.916Z,82.95
2023-11-06T00:55:35.984Z,82.23
2023-11-06T00:56:36.088Z,82.34
2023-11-06T00:57:36.188Z,82.54
2023-11-06T00:58:36.238Z,82.75
2023-11-06T00:59:36.301Z,82.43
2023-11-06T01:00:36.374Z,82.54
2023-11-06T01:01:36.445Z,82.75
2023-11-06T01:02:36.598Z,82.34
2023-11-06T01:03:36.646Z,82.23
2023-11-06T01:04:36.735Z,82.43
2023-11-06T01:05:36.852Z,82.34
2023-11-06T01:06:36.855Z,82.54
2023-11-06T01:07:36.974Z,82.75
2023-11-06T01:08:37.005Z,82.43
2023-11-06T01:09:37.086Z,82.43
2023-11-06T01:10:37.178Z,82.54
2023-11-06T01:11:37.308Z,81.82
2023-11-06T01:12:37.365Z,82.13
2023-11-06T01:13:37.436Z,81.51
2023-11-06T01:14:37.500Z,81.72
2023-11-06T01:15:37.570Z,81.62
2023-11-06T01:16:37.686Z,81.62
2023-11-06T01:17:37.787Z,81.01
2023-11-06T01:18:37.879Z,80.69
2023-11-06T01:19:37.912Z,80.80
2023-11-06T01:20:37.965Z,80.87
2023-11-06T01:21:38.101Z,80.80
2023-11-06T01:22:41.632Z,80.69
2023-11-06T01:23:38.210Z,81.10
2023-11-06T01:24:38.288Z,81.31
2023-11-06T01:25:38.367Z,80.90
2023-11-06T01:26:38.488Z,80.90
2023-11-06T01:27:38.515Z,80.87
2023-11-06T01:28:38.602Z,81.01
2023-11-06T01:29:38.714Z,81.01
2023-11-06T01:30:38.760Z,80.90
2023-11-06T01:31:38.822Z,81.21
2023-11-06T01:32:39.023Z,81.51
2023-11-06T01:33:39.111Z,81.82
2023-11-06T01:34:39.125Z,81.93
2023-11-06T01:35:39.167Z,81.82
2023-11-06T01:36:39.229Z,82.13
2023-11-06T01:37:39.350Z,81.41
2023-11-06T01:38:39.445Z,81.72
2023-11-06T01:39:39.476Z,81.82
2023-11-06T01:40:39.575Z,81.93
2023-11-06T01:41:39.668Z,82.13
2023-11-06T01:42:40.510Z,82.34
2023-11-06T01:43:39.817Z,82.54
2023-11-06T01:44:39.850Z,82.34
2023-11-06T01:45:39.918Z,82.34
2023-11-06T01:46:40.024Z,82.75
2023-11-06T01:47:40.118Z,82.64
2023-11-06T01:48:40.286Z,82.78
2023-11-06T01:49:40.240Z,82.89
2023-11-06T01:50:40.317Z,82.98
2023-11-06T01:51:40.404Z,83.50
2023-11-06T01:52:40.472Z,83.29
2023-11-06T01:53:40.592Z,83.60
2023-11-06T01:54:40.620Z,84.01
2023-11-06T01:55:40.705Z,84.11
2023-11-06T01:56:40.773Z,84.36
2023-11-06T01:57:40.848Z,84.77
2023-11-06T01:58:40.990Z,84.66
2023-11-06T01:59:41.037Z,84.72
2023-11-06T02:00:41.139Z,84.66
2023-11-06T02:01:41.190Z,85.07
2023-11-06T02:02:41.315Z,84.15
2023-11-06T02:03:41.427Z,84.87
2023-11-06T02:04:41.422Z,85.07
2023-11-06T02:05:41.512Z,84.97
2023-11-06T02:06:41.602Z,84.66
2023-11-06T02:07:41.678Z,84.87
2023-11-06T02:08:41.767Z,85.07
2023-11-06T02:09:41.842Z,84.56
2023-11-06T02:10:42.002Z,84.66
2023-11-06T02:11:42.061Z,84.87
2023-11-06T02:12:42.100Z,84.87
2023-11-06T02:13:42.173Z,84.97
2023-11-06T02:14:42.238Z,84.87
2023-11-06T02:15:42.622Z,84.56
2023-11-06T02:16:42.456Z,84.56
2023-11-06T02:17:42.505Z,84.77
2023-11-06T02:18:42.613Z,85.07
2023-11-06T02:19:42.641Z,84.87
2023-11-06T02:20:42.722Z,84.97
2023-11-06T02:21:49.987Z,84.97
2023-11-06T02:22:43.945Z,85.38
2023-11-06T02:23:42.987Z,84.87
2023-11-06T02:24:43.062Z,85.07
2023-11-06T02:25:43.135Z,85.17
2023-11-06T02:26:43.243Z,85.07
2023-11-06T02:27:43.287Z,85.52
2023-11-06T02:28:43.363Z,85.42
2023-11-06T02:29:43.452Z,85.42
2023-11-06T02:30:43.540Z,85.72
2023-11-06T02:31:43.676Z,85.52
2023-11-06T02:32:43.875Z,85.31
2023-11-06T02:33:43.891Z,85.63
2023-11-06T02:34:43.891Z,85.52
2023-11-06T02:35:44.028Z,85.11
2023-11-06T02:36:44.090Z,85.11
2023-11-06T02:37:44.146Z,84.80
2023-11-06T02:38:44.165Z,84.60
2023-11-06T02:39:44.248Z,84.70
2023-11-06T02:40:44.324Z,84.50
2023-11-06T02:41:44.476Z,84.15
2023-11-06T02:42:44.595Z,84.25
2023-11-06T02:43:44.587Z,84.46
2023-11-06T02:44:44.716Z,84.77
2023-11-06T02:45:44.766Z,84.29
2023-11-06T02:46:44.843Z,84.29
2023-11-06T02:47:44.977Z,83.88
2023-11-06T02:48:45.071Z,84.05
2023-11-06T02:49:45.124Z,83.64
2023-11-06T02:50:45.232Z,82.92
2023-11-06T02:51:45.307Z,83.03
2023-11-06T02:52:45.369Z,83.03
2023-11-06T02:53:45.991Z,81.70
2023-11-06T02:54:45.536Z,81.35
2023-11-06T02:55:45.614Z,81.24
2023-11-06T02:56:45.690Z,81.45
2023-11-06T02:57:45.761Z,80.74
2023-11-06T02:58:45.842Z,80.83
2023-11-06T02:59:45.939Z,80.08
2023-11-06T03:00:45.974Z,80.08
2023-11-06T03:01:46.064Z,80.39
2023-11-06T03:02:46.245Z,79.78
2023-11-06T03:03:46.273Z,80.19
2023-11-06T03:04:46.365Z,79.68
2023-11-06T03:05:46.423Z,79.57
2023-11-06T03:06:46.542Z,79.47
2023-11-06T03:07:46.617Z,78.96
2023-11-06T03:08:46.660Z,78.86
2023-11-06T03:09:46.790Z,78.65
2023-11-06T03:10:46.809Z,78.04
2023-11-06T03:11:46.936Z,77.73
2023-11-06T03:12:47.078Z,78.24
2023-11-06T03:13:47.147Z,78.04
2023-11-06T03:14:47.198Z,78.14
2023-11-06T03:15:47.231Z,78.24
2023-11-06T03:16:47.354Z,78.04
2023-11-06T03:17:47.424Z,78.24
2023-11-06T03:18:47.502Z,78.14
2023-11-06T03:19:47.883Z,78.69
2023-11-06T03:20:47.710Z,78.38
2023-11-06T03:21:47.709Z,78.69
2023-11-06T03:22:47.876Z,78.49
2023-11-06T03:23:47.899Z,78.28
2023-11-06T03:24:47.965Z,78.24
2023-11-06T03:25:48.161Z,78.04
2023-11-06T03:26:48.155Z,77.83
2023-11-06T03:27:48.210Z,77.94
2023-11-06T03:28:48.354Z,78.04
2023-11-06T03:29:48.369Z,78.14
2023-11-06T03:30:48.455Z,78.14
2023-11-06T03:31:48.639Z,78.24
2023-11-06T03:32:48.683Z,78.45
2023-11-06T03:33:48.745Z,78.69
2023-11-06T03:34:48.817Z,78.04
2023-11-06T03:35:48.905Z,78.04
2023-11-06T03:36:49.068Z,78.59
2023-11-06T03:37:49.128Z,78.49
2023-11-06T03:38:49.129Z,78.69
2023-11-06T03:39:49.247Z,78.49
2023-11-06T03:40:49.380Z,78.59
2023-11-06T03:41:49.416Z,78.69
2023-11-06T03:42:49.447Z,78.49
2023-11-06T03:43:49.557Z,78.38
2023-11-06T03:44:49.598Z,78.49
2023-11-06T03:45:52.086Z,78.69
2023-11-06T03:46:49.859Z,78.59
2023-11-06T03:47:49.922Z,79.00
2023-11-06T03:48:49.983Z,78.59
2023-11-06T03:49:50.047Z,79.00
2023-11-06T03:50:50.118Z,79.10
2023-11-06T03:51:50.288Z,79.13
2023-11-06T03:52:50.288Z,79.54
2023-11-06T03:53:50.370Z,79.34
2023-11-06T03:54:50.428Z,79.44
2023-11-06T03:55:50.580Z,79.64
2023-11-06T03:56:50.636Z,79.64
2023-11-06T03:57:50.684Z,79.44
2023-11-06T03:58:50.807Z,79.64
2023-11-06T03:59:50.893Z,79.79
2023-11-06T04:00:50.960Z,80.19
2023-11-06T04:01:51.098Z,80.09
2023-11-06T04:02:51.162Z,80.60
2023-11-06T04:03:51.237Z,80.60
2023-11-06T04:04:51.308Z,80.81
2023-11-06T04:05:51.377Z,81.36
2023-11-06T04:06:51.472Z,81.57
2023-11-06T04:07:51.646Z,81.98
2023-11-06T04:08:51.682Z,82.12
2023-11-06T04:09:51.742Z,82.08
2023-11-06T04:10:51.840Z,82.32
2023-11-06T04:11:51.889Z,82.32
2023-11-06T04:12:51.989Z,82.49
2023-11-06T04:13:52.126Z,82.63
2023-11-06T04:14:52.192Z,82.73
2023-11-06T04:15:52.285Z,82.93
2023-11-06T04:16:52.372Z,83.25
2023-11-06T04:17:52.465Z,83.39
2023-11-06T04:18:52.531Z,83.49
2023-11-06T04:19:52.670Z,83.28
2023-11-06T04:20:52.662Z,83.34
2023-11-06T04:21:52.742Z,83.49
2023-11-06T04:22:52.851Z,83.80
2023-11-06T04:23:52.903Z,83.80
2023-11-06T04:24:53.018Z,83.90
2023-11-06T04:25:53.092Z,83.80
2023-11-06T04:26:53.126Z,84.00
2023-11-06T04:27:53.223Z,84.20
2023-11-06T04:28:53.295Z,84.10
2023-11-06T04:29:53.393Z,84.20
2023-11-06T04:30:53.515Z,84.31
2023-11-06T04:31:53.556Z,84.52
2023-11-06T04:32:53.647Z,84.76
2023-11-06T04:33:53.737Z,84.96
2023-11-06T04:34:53.821Z,84.86
2023-11-06T04:35:53.887Z,84.96
2023-11-06T04:36:53.923Z,85.06
2023-11-06T04:37:54.070Z,84.86
2023-11-06T04:38:54.085Z,84.96
2023-11-06T04:39:54.156Z,84.86
2023-11-06T04:40:54.243Z,85.06
2023-11-06T04:41:54.332Z,85.17
2023-11-06T04:42:54.453Z,85.27
2023-11-06T04:43:54.489Z,85.27
2023-11-06T04:44:54.550Z,85.27
2023-11-06T04:45:54.632Z,85.38
2023-11-06T04:46:54.733Z,85.38
2023-11-06T04:47:54.969Z,85.27
2023-11-06T04:48:54.877Z,85.17
2023-11-06T04:49:54.959Z,85.38
2023-11-06T04:50:55.003Z,85.47
2023-11-06T04:51:55.084Z,85.68
2023-11-06T04:52:55.193Z,85.38
2023-11-06T04:53:55.256Z,85.38
2023-11-06T04:54:55.292Z,85.47
2023-11-06T04:55:55.418Z,85.27
2023-11-06T04:56:55.433Z,85.38
2023-11-06T04:57:55.497Z,85.38
2023-11-06T04:58:55.610Z,85.17
2023-11-06T04:59:55.637Z,85.27
2023-11-06T05:00:56.494Z,85.27
2023-11-06T05:01:55.829Z,85.58
2023-11-06T05:02:55.905Z,85.17
2023-11-06T05:03:56.036Z,85.27
2023-11-06T05:04:56.103Z,85.27
2023-11-06T05:05:56.274Z,85.38
2023-11-06T05:06:56.221Z,85.68
2023-11-06T05:07:56.294Z,85.58
2023-11-06T05:08:56.366Z,85.78
2023-11-06T05:09:56.484Z,85.68
2023-11-06T05:10:56.532Z,85.38
2023-11-06T05:11:56.599Z,85.27
2023-11-06T05:12:56.699Z,84.96
2023-11-06T05:13:56.797Z,84.82
2023-11-06T05:14:56.874Z,84.82
2023-11-06T05:15:56.909Z,84.92
2023-11-06T05:16:57.027Z,85.03
2023-11-06T05:17:57.079Z,84.82
2023-11-06T05:18:57.126Z,84.82
2023-11-06T05:19:57.206Z,84.92
2023-11-06T05:20:57.268Z,84.82
2023-11-06T05:21:57.374Z,84.41
2023-11-06T05:22:57.481Z,84.20
2023-11-06T05:23:57.509Z,84.20
2023-11-06T05:24:57.588Z,83.76
2023-11-06T05:25:57.785Z,83.65
2023-11-06T05:26:57.794Z,84.06
2023-11-06T05:27:57.844Z,83.96
2023-11-06T05:28:57.987Z,83.86
2023-11-06T05:29:58.055Z,83.76
2023-11-06T05:30:58.134Z,83.55
2023-11-06T05:31:58.190Z,83.65
2023-11-06T05:32:58.272Z,83.86
2023-11-06T05:33:58.356Z,83.76
2023-11-06T05:34:58.531Z,83.65
2023-11-06T05:35:58.513Z,83.55
2023-11-06T05:36:58.603Z,83.65
2023-11-06T05:37:58.709Z,83.76
2023-11-06T05:38:58.771Z,83.65
2023-11-06T05:39:58.792Z,83.65
2023-11-06T05:40:58.896Z,83.65
2023-11-06T05:41:58.957Z,83.96
2023-11-06T05:42:59.060Z,84.06
2023-11-06T05:43:59.201Z,83.86
2023-11-06T05:44:59.199Z,84.27
2023-11-06T05:45:59.294Z,84.17
2023-11-06T05:46:59.400Z,84.17
2023-11-06T05:47:59.491Z,83.86
2023-11-06T05:48:59.702Z,83.86
2023-11-06T05:49:59.663Z,83.41
2023-11-06T05:50:59.723Z,83.20
2023-11-06T05:51:59.791Z,83.10
2023-11-06T05:52:59.902Z,82.90
2023-11-06T05:54:00.004Z,83.00
2023-11-06T05:55:00.084Z,82.79
2023-11-06T05:56:00.169Z,82.59
2023-11-06T05:57:00.223Z,82.69
2023-11-06T05:58:00.363Z,82.49
2023-11-06T05:59:00.432Z,82.59
2023-11-06T06:00:00.466Z,82.69
2023-11-06T06:01:00.558Z,82.79
2023-11-06T06:02:00.633Z,83.20
2023-11-06T06:03:00.751Z,82.69
2023-11-06T06:04:00.780Z,82.39
2023-11-06T06:05:00.882Z,82.69
2023-11-06T06:06:01.119Z,82.59
2023-11-06T06:07:01.012Z,82.39
2023-11-06T06:08:01.109Z,82.59
2023-11-06T06:09:01.189Z,82.69
2023-11-06T06:10:01.271Z,82.69
2023-11-06T06:11:01.422Z,83.00
2023-11-06T06:12:01.458Z,82.69
2023-11-06T06:13:01.505Z,82.90
2023-11-06T06:14:01.620Z,82.79
2023-11-06T06:15:01.778Z,82.90
2023-11-06T06:16:01.758Z,82.28
2023-11-06T06:17:01.865Z,82.24
2023-11-06T06:18:01.954Z,81.94
2023-11-06T06:19:01.983Z,82.04
2023-11-06T06:20:02.164Z,82.14
2023-11-06T06:21:02.121Z,81.94
2023-11-06T06:22:02.249Z,82.04
2023-11-06T06:23:02.307Z,81.73
2023-11-06T06:24:02.398Z,81.73
2023-11-06T06:25:02.496Z,81.94
2023-11-06T06:26:02.701Z,81.94
2023-11-06T06:27:02.706Z,81.63
2023-11-06T06:28:02.746Z,81.84
2023-11-06T06:29:02.845Z,82.14
2023-11-06T06:30:02.947Z,81.94
2023-11-06T06:31:02.990Z,81.94
2023-11-06T06:32:03.143Z,81.94
2023-11-06T06:33:03.208Z,82.55
2023-11-06T06:34:03.214Z,82.45
2023-11-06T06:35:03.296Z,82.14
2023-11-06T06:36:03.378Z,82.14
2023-11-06T06:37:03.506Z,82.35
2023-11-06T06:38:03.595Z,82.04
2023-11-06T06:39:03.629Z,82.14
2023-11-06T06:40:03.752Z,81.79
2023-11-06T06:41:03.829Z,81.79
2023-11-06T06:42:03.966Z,82.00
2023-11-06T06:43:04.090Z,81.90
2023-11-06T06:44:04.123Z,82.10
2023-11-06T06:45:04.157Z,81.79
2023-11-06T06:46:04.240Z,81.90
2023-11-06T06:47:04.338Z,82.00
2023-11-06T06:48:04.497Z,81.79
2023-11-06T06:49:04.580Z,81.59
2023-11-06T06:50:04.565Z,81.59
2023-11-06T06:51:04.634Z,81.38
2023-11-06T06:52:04.716Z,81.79
2023-11-06T06:53:04.841Z,81.79
2023-11-06T06:54:04.919Z,81.59
2023-11-06T06:55:04.987Z,81.79
2023-11-06T06:56:05.064Z,81.79
2023-11-06T06:57:05.139Z,82.10
2023-11-06T06:58:05.222Z,81.59
2023-11-06T06:59:05.378Z,81.70
2023-11-06T07:00:05.438Z,81.79
2023-11-06T07:01:05.451Z,81.79
2023-11-06T07:02:05.644Z,81.79
2023-11-06T07:03:05.714Z,81.86
2023-11-06T07:04:06.023Z,82.21
2023-11-06T07:05:05.964Z,81.79
2023-11-06T07:06:06.072Z,81.96
2023-11-06T07:07:05.946Z,81.59
2023-11-06T07:08:06.073Z,81.96
2023-11-06T07:09:06.093Z,81.65
2023-11-06T07:10:06.222Z,81.59
2023-11-06T07:11:06.340Z,81.56
2023-11-06T07:12:06.317Z,81.65
2023-11-06T07:13:06.400Z,81.65
2023-11-06T07:14:06.511Z,81.76
2023-11-06T07:15:06.602Z,81.45
2023-11-06T07:16:06.655Z,81.56
2023-11-06T07:17:06.766Z,82.17
2023-11-06T07:18:06.882Z,81.96
2023-11-06T07:19:06.888Z,82.07
2023-11-06T07:20:06.987Z,82.17
2023-11-06T07:21:07.070Z,82.27
2023-11-06T07:22:07.190Z,82.37
2023-11-06T07:23:07.237Z,81.96
2023-11-06T07:24:07.296Z,82.68
2023-11-06T07:25:07.418Z,82.17
2023-11-06T07:26:07.520Z,82.17
2023-11-06T07:27:07.639Z,81.96
2023-11-06T07:28:07.647Z,82.17
2023-11-06T07:29:07.830Z,82.48
2023-11-06T07:30:07.860Z,81.45
2023-11-06T07:31:07.886Z,81.72
2023-11-06T07:32:08.027Z,81.51
2023-11-06T07:33:08.143Z,81.82
2023-11-06T07:34:08.152Z,81.72
2023-11-06T07:35:08.299Z,81.41
2023-11-06T07:36:08.314Z,81.10
2023-11-06T07:37:08.385Z,81.21
2023-11-06T07:38:08.456Z,80.90
2023-11-06T07:39:08.540Z,80.49
2023-11-06T07:40:08.703Z,80.39
2023-11-06T07:41:08.734Z,81.10
2023-11-06T07:42:08.804Z,81.01
2023-11-06T07:43:08.872Z,80.69
2023-11-06T07:44:08.953Z,80.15
2023-11-06T07:45:09.124Z,80.35
2023-11-06T07:46:09.093Z,80.25
2023-11-06T07:47:09.181Z,80.46
2023-11-06T07:48:09.299Z,80.25
2023-11-06T07:49:09.372Z,79.74
2023-11-06T07:50:09.620Z,80.15
2023-11-06T07:51:09.499Z,80.25
2023-11-06T07:52:09.621Z,80.35
2023-11-06T07:53:09.692Z,80.76
2023-11-06T07:54:09.788Z,81.07
2023-11-06T07:55:09.879Z,80.25
2023-11-06T07:56:09.962Z,80.56
2023-11-06T07:57:10.002Z,80.56
2023-11-06T07:58:10.099Z,80.80
2023-11-06T07:59:10.193Z,80.39
2023-11-06T08:00:10.728Z,80.56
2023-11-06T08:01:10.534Z,80.46
2023-11-06T08:02:10.577Z,80.76
2023-11-06T08:03:10.577Z,80.66
2023-11-06T08:04:10.667Z,80.15
2023-11-06T08:05:10.797Z,80.05
2023-11-06T08:06:10.870Z,80.15
2023-11-06T08:07:10.964Z,80.35
2023-11-06T08:08:11.078Z,79.60
2023-11-06T08:09:11.120Z,80.01
2023-11-06T08:10:11.184Z,79.29
2023-11-06T08:11:11.386Z,79.70
2023-11-06T08:12:11.322Z,79.60
2023-11-06T08:13:11.418Z,79.80
2023-11-06T08:14:11.584Z,79.19
2023-11-06T08:15:11.602Z,78.99
2023-11-06T08:16:11.641Z,79.39
2023-11-06T08:17:11.805Z,79.60
2023-11-06T08:18:11.937Z,79.60
2023-11-06T08:19:11.923Z,79.29
2023-11-06T08:20:12.002Z,78.88
2023-11-06T08:21:12.076Z,78.64
2023-11-06T08:22:12.153Z,78.95
2023-11-06T08:23:12.297Z,78.95
2023-11-06T08:24:12.377Z,79.25
2023-11-06T08:25:12.418Z,78.85
2023-11-06T08:26:12.549Z,78.95
2023-11-06T08:27:12.617Z,78.75
2023-11-06T08:28:12.730Z,78.23
2023-11-06T08:29:12.831Z,78.75
2023-11-06T08:30:12.897Z,78.64
2023-11-06T08:31:12.990Z,78.34
2023-11-06T08:32:13.241Z,78.95
2023-11-06T08:33:13.176Z,78.34
2023-11-06T08:34:13.309Z,78.13
2023-11-06T08:35:13.400Z,78.23
2023-11-06T08:36:13.667Z,78.34
2023-11-06T08:37:13.471Z,77.89
2023-11-06T08:38:13.639Z,78.30
2023-11-06T08:39:13.753Z,78.41
2023-11-06T08:40:13.719Z,77.69
2023-11-06T08:41:13.804Z,78.00
2023-11-06T08:42:13.848Z,78.00
2023-11-06T08:43:16.873Z,77.59
2023-11-06T08:44:14.126Z,77.86
2023-11-06T08:45:14.078Z,77.65
2023-11-06T08:46:14.150Z,77.65
2023-11-06T08:47:14.280Z,77.14
2023-11-06T08:48:14.372Z,77.14
2023-11-06T08:49:20.478Z,77.55
2023-11-06T08:50:15.485Z,76.63
2023-11-06T08:51:14.538Z,76.73
2023-11-06T08:52:14.636Z,76.63
2023-11-06T08:53:14.769Z,76.93
2023-11-06T08:54:14.876Z,76.84
2023-11-06T08:55:17.005Z,76.63
2023-11-06T08:56:14.962Z,77.04
2023-11-06T08:57:15.065Z,76.73
2023-11-06T08:58:15.168Z,77.45
2023-11-06T08:59:15.313Z,77.25
2023-11-06T09:00:15.278Z,77.55
2023-11-06T09:01:17.348Z,77.86
2023-11-06T09:02:15.546Z,76.63
2023-11-06T09:03:15.612Z,76.93
2023-11-06T09:04:15.688Z,76.84
2023-11-06T09:05:15.710Z,76.43
2023-11-06T09:06:15.789Z,77.25
2023-11-06T09:07:15.914Z,76.93
2023-11-06T09:08:15.986Z,77.34
2023-11-06T09:09:16.044Z,77.59
2023-11-06T09:10:16.148Z,77.89
2023-11-06T09:11:16.302Z,78.06
2023-11-06T09:12:16.338Z,77.08
2023-11-06T09:13:16.394Z,77.38
2023-11-06T09:14:16.517Z,77.34
2023-11-06T09:15:16.599Z,76.73
2023-11-06T09:16:16.706Z,76.97
2023-11-06T09:17:16.765Z,77.04
2023-11-06T09:18:16.940Z,77.08
2023-11-06T09:19:16.903Z,77.45
2023-11-06T09:20:17.101Z,76.93
2023-11-06T09:21:17.128Z,76.84
2023-11-06T09:22:17.212Z,77.04
2023-11-06T09:23:17.303Z,77.14
2023-11-06T09:24:17.388Z,77.25
2023-11-06T09:25:17.416Z,77.14
2023-11-06T09:26:17.553Z,77.34
2023-11-06T09:27:17.637Z,77.65
2023-11-06T09:28:17.741Z,78.06
2023-11-06T09:29:17.780Z,77.45
2023-11-06T09:30:17.840Z,77.14
2023-11-06T09:31:17.921Z,77.34
2023-11-06T09:32:18.186Z,77.75
2023-11-06T09:33:18.156Z,77.55
2023-11-06T09:34:18.280Z,76.22
2023-11-06T09:35:18.269Z,77.14
2023-11-06T09:36:18.319Z,77.75
2023-11-06T09:37:18.426Z,77.55
2023-11-06T09:38:18.621Z,77.65
2023-11-06T09:39:18.649Z,76.84
2023-11-06T09:40:18.754Z,77.75
2023-11-06T09:41:18.820Z,77.25
2023-11-06T09:42:18.872Z,77.14
2023-11-06T09:43:19.641Z,77.04
2023-11-06T09:44:19.060Z,77.45
2023-11-06T09:45:19.168Z,77.86
2023-11-06T09:46:19.294Z,76.73
2023-11-06T09:47:19.327Z,77.14
2023-11-06T09:48:19.553Z,77.04
2023-11-06T09:49:19.515Z,77.04
2023-11-06T09:50:19.613Z,77.04
2023-11-06T09:51:21.036Z,77.14
2023-11-06T09:52:19.712Z,78.16
2023-11-06T09:53:19.817Z,77.65
2023-11-06T09:54:19.883Z,77.34
2023-11-06T09:55:19.999Z,76.93
2023-11-06T09:56:20.126Z,76.53
2023-11-06T09:57:20.146Z,76.43
2023-11-06T09:58:20.253Z,76.43
2023-11-06T09:59:20.327Z,77.34
2023-11-06T10:00:20.395Z,77.55
2023-11-06T10:01:20.517Z,77.00
2023-11-06T10:02:20.662Z,77.00
2023-11-06T10:03:20.716Z,77.14
2023-11-06T10:04:20.760Z,77.11
2023-11-06T10:05:20.916Z,76.19
2023-11-06T10:06:20.937Z,76.39
2023-11-06T10:07:20.972Z,77.21
2023-11-06T10:08:21.102Z,77.21
2023-11-06T10:09:21.146Z,75.98
2023-11-06T10:10:21.242Z,77.00
2023-11-06T10:11:21.373Z,76.09
2023-11-06T10:12:21.420Z,75.88
2023-11-06T10:13:21.541Z,76.39
2023-11-06T10:14:21.634Z,76.70
2023-11-06T10:15:21.682Z,75.44
2023-11-06T10:16:21.768Z,75.57
2023-11-06T10:17:21.874Z,75.07
2023-11-06T10:18:22.279Z,75.37
2023-11-06T10:19:22.017Z,75.07
2023-11-06T10:20:22.211Z,74.96
2023-11-06T10:21:22.182Z,75.16
2023-11-06T10:22:22.274Z,75.37
2023-11-06T10:23:22.468Z,75.07
2023-11-06T10:24:22.463Z,74.66
2023-11-06T10:25:22.577Z,74.45
2023-11-06T10:26:23.498Z,74.55
2023-11-06T10:27:22.733Z,74.66
2023-11-06T10:28:22.863Z,74.45
2023-11-06T10:29:22.983Z,74.55
2023-11-06T10:30:23.058Z,72.82
2023-11-06T10:31:23.130Z,72.79
2023-11-06T10:32:23.209Z,73.10
2023-11-06T10:33:24.271Z,73.91
2023-11-06T10:34:23.507Z,72.89
2023-11-06T10:35:23.503Z,72.48
2023-11-06T10:36:23.475Z,72.45
2023-11-06T10:37:23.564Z,71.94
2023-11-06T10:38:23.697Z,72.24
2023-11-06T10:39:23.765Z,72.41
2023-11-06T10:40:23.863Z,70.28
2023-11-06T10:41:24.112Z,71.30
2023-11-06T10:42:23.993Z,70.89
2023-11-06T10:43:24.943Z,71.19
2023-11-06T10:44:24.222Z,70.55
2023-11-06T10:45:25.080Z,70.75
2023-11-06T10:46:24.371Z,69.63
2023-11-06T10:47:25.279Z,70.45
2023-11-06T10:48:24.617Z,69.84
2023-11-06T10:49:24.598Z,69.73
2023-11-06T10:50:26.547Z,68.41
2023-11-06T10:51:24.720Z,69.67
2023-11-06T10:52:24.824Z,69.56
2023-11-06T10:53:24.941Z,68.95
2023-11-06T10:54:25.069Z,69.46
2023-11-06T10:55:31.669Z,71.09
2023-11-06T10:56:26.241Z,70.07
2023-11-06T10:57:25.193Z,70.68
2023-11-06T10:58:25.278Z,69.12
2023-11-06T10:59:25.445Z,70.07
2023-11-06T11:00:25.498Z,69.93
2023-11-06T11:01:25.573Z,69.84
2023-11-06T11:02:25.674Z,69.46
2023-11-06T11:03:25.761Z,69.56
2023-11-06T11:04:25.854Z,69.26
2023-11-06T11:05:26.366Z,70.68
2023-11-06T11:06:25.950Z,69.87
2023-11-06T11:07:26.023Z,69.06
2023-11-06T11:08:26.094Z,70.78
2023-11-06T11:09:26.121Z,69.56
2023-11-06T11:10:26.198Z,70.28
2023-11-06T11:11:26.366Z,68.31
2023-11-06T11:12:26.446Z,68.71
2023-11-06T11:13:26.563Z,68.41
2023-11-06T11:14:26.612Z,67.19
2023-11-06T11:15:26.661Z,68.51
2023-11-06T11:16:28.521Z,67.63
2023-11-06T11:17:26.904Z,67.52
2023-11-06T11:18:27.036Z,67.32
2023-11-06T11:19:27.025Z,66.91
2023-11-06T11:20:27.122Z,68.13
2023-11-06T11:21:27.176Z,68.34
2023-11-06T11:22:29.066Z,68.48
2023-11-06T11:23:27.400Z,68.85
2023-11-06T11:24:27.707Z,69.29
2023-11-06T11:25:27.655Z,68.44
2023-11-06T11:26:27.558Z,67.86
2023-11-06T11:27:28.524Z,68.37
2023-11-06T11:28:29.133Z,68.65
2023-11-06T11:29:27.843Z,67.63
2023-11-06T11:30:27.930Z,68.85
2023-11-06T11:31:27.924Z,69.43
2023-11-06T11:32:28.023Z,68.01
2023-11-06T11:33:28.158Z,68.82
2023-11-06T11:34:28.815Z,66.96
2023-11-06T11:35:28.392Z,67.66
2023-11-06T11:36:28.390Z,67.57
2023-11-06T11:37:28.480Z,66.65
2023-11-06T11:38:28.667Z,66.44
2023-11-06T11:39:28.641Z,66.65
2023-11-06T11:40:28.779Z,67.26
2023-11-06T11:41:28.858Z,67.66
2023-11-06T11:42:28.865Z,67.36
2023-11-06T11:43:28.931Z,67.26
2023-11-06T11:44:29.157Z,67.02
2023-11-06T11:45:29.112Z,67.94
2023-11-06T11:46:29.168Z,67.30
2023-11-06T11:47:29.320Z,66.76
2023-11-06T11:48:29.387Z,65.64
2023-11-06T11:49:29.414Z,66.08
2023-11-06T11:50:29.566Z,66.08
2023-11-06T11:51:29.928Z,66.92
2023-11-06T11:52:29.666Z,66.52
2023-11-06T11:53:29.750Z,66.72
2023-11-06T11:54:29.860Z,66.44
2023-11-06T11:55:30.151Z,66.85
2023-11-06T11:56:29.992Z,67.57
2023-11-06T11:57:30.058Z,66.96
2023-11-06T11:58:30.180Z,67.83
2023-11-06T11:59:30.344Z,67.16
2023-11-06T12:00:30.340Z,67.22
2023-11-06T12:01:30.437Z,66.61
2023-11-06T12:02:31.080Z,67.16
2023-11-06T12:03:30.755Z,67.16
2023-11-06T12:04:30.652Z,67.77
2023-11-06T12:05:30.827Z,66.14
2023-11-06T12:06:30.826Z,65.43
2023-11-06T12:07:30.880Z,66.75
2023-11-06T12:08:31.057Z,66.65
2023-11-06T12:09:31.048Z,68.10
2023-11-06T12:10:31.155Z,67.90
2023-11-06T12:11:31.355Z,69.15
2023-11-06T12:12:31.243Z,69.36
2023-11-06T12:13:31.387Z,68.95
2023-11-06T12:14:31.488Z,69.46
2023-11-06T12:15:31.524Z,70.17
2023-11-06T12:16:31.600Z,69.26
2023-11-06T12:17:31.948Z,69.76
2023-11-06T12:18:31.914Z,69.97
2023-11-06T12:19:31.995Z,69.87
2023-11-06T12:20:31.944Z,69.87
2023-11-06T12:21:31.999Z,69.97
2023-11-06T12:22:32.223Z,70.38
2023-11-06T12:23:32.291Z,70.58
2023-11-06T12:24:32.283Z,70.89
2023-11-06T12:25:32.396Z,69.46
2023-11-06T12:26:32.569Z,69.06
2023-11-06T12:27:32.570Z,69.97
2023-11-06T12:28:32.670Z,69.76
2023-11-06T12:29:32.805Z,69.97
2023-11-06T12:30:32.839Z,70.07
2023-11-06T12:31:32.889Z,69.97
2023-11-06T12:32:33.035Z,70.28
2023-11-06T12:33:33.248Z,69.87
2023-11-06T12:34:33.186Z,70.28
2023-11-06T12:35:33.223Z,69.26
2023-11-06T12:36:34.374Z,69.46
2023-11-06T12:37:33.416Z,69.76
2023-11-06T12:38:33.535Z,69.87
2023-11-06T12:39:33.553Z,69.56
2023-11-06T12:40:33.648Z,69.97
2023-11-06T12:41:33.797Z,70.07
2023-11-06T12:42:33.785Z,70.38
2023-11-06T12:43:33.996Z,69.76
2023-11-06T12:44:34.012Z,70.28
2023-11-06T12:45:34.077Z,70.28
2023-11-06T12:46:34.151Z,70.48
2023-11-06T12:47:34.217Z,70.58
2023-11-06T12:48:35.664Z,70.89
2023-11-06T12:49:34.452Z,71.19
2023-11-06T12:50:34.430Z,71.30
2023-11-06T12:51:34.547Z,70.78
2023-11-06T12:52:34.574Z,70.68
2023-11-06T12:53:34.691Z,70.58